createdAt,value
2018-05-21T00:00:30.511Z,15.19
2018-05-21T00:02:58.047Z,15.11
2018-05-21T00:05:25.550Z,15.09
2018-05-21T00:07:53.026Z,15.09
2018-05-21T00:10:20.527Z,14.97
2018-05-21T00:12:48.003Z,15.05
2018-05-21T00:15:15.502Z,15.01
2018-05-21T00:17:42.974Z,15.03
2018-05-21T00:20:10.478Z,15.05
2018-05-21T00:22:37.950Z,15.01
2018-05-21T00:25:05.446Z,15.01
2018-05-21T00:27:32.925Z,15.00
2018-05-21T00:30:00.414Z,14.93
2018-05-21T00:32:27.886Z,14.94
2018-05-21T00:34:55.378Z,14.93
2018-05-21T00:37:22.866Z,14.82
2018-05-21T00:39:50.358Z,14.82
2018-05-21T00:42:18.409Z,14.73
2018-05-21T00:44:45.889Z,14.65
2018-05-21T00:47:13.370Z,14.58
2018-05-21T00:49:40.905Z,14.53
2018-05-21T00:52:08.373Z,14.55
2018-05-21T00:54:35.866Z,14.62
2018-05-21T00:57:03.353Z,14.64
2018-05-21T00:59:30.861Z,14.47
2018-05-21T01:01:58.354Z,14.53
2018-05-21T01:04:25.838Z,14.48
2018-05-21T01:06:53.335Z,14.44
2018-05-21T01:09:20.835Z,14.41
2018-05-21T01:11:48.337Z,14.46
2018-05-21T01:14:15.834Z,14.42
2018-05-21T01:16:43.321Z,14.50
2018-05-21T01:19:10.797Z,14.60
2018-05-21T01:21:38.299Z,14.61
2018-05-21T01:24:05.782Z,14.64
2018-05-21T01:26:33.274Z,14.63
2018-05-21T01:29:00.763Z,14.67
2018-05-21T01:31:28.267Z,14.64
2018-05-21T01:33:55.757Z,14.54
2018-05-21T01:36:23.251Z,14.58
2018-05-21T01:38:50.731Z,14.56
2018-05-21T01:41:18.220Z,14.41
2018-05-21T01:43:45.726Z,14.43
2018-05-21T01:46:13.218Z,14.53
2018-05-21T01:48:40.694Z,14.62
2018-05-21T01:51:08.198Z,14.55
2018-05-21T01:53:35.691Z,14.56
2018-05-21T01:56:03.182Z,14.54
2018-05-21T01:58:30.681Z,14.60
2018-05-21T02:00:58.174Z,14.58
2018-05-21T02:03:25.647Z,14.49
2018-05-21T02:05:53.153Z,14.43
2018-05-21T02:08:20.896Z,14.37
2018-05-21T02:10:48.371Z,14.43
2018-05-21T02:13:15.850Z,14.51
2018-05-21T02:15:43.407Z,14.55
2018-05-21T02:18:10.882Z,14.52
2018-05-21T02:20:38.373Z,14.57
2018-05-21T02:23:05.861Z,14.55
2018-05-21T02:25:34.362Z,14.52
2018-05-21T02:28:01.864Z,14.55
2018-05-21T02:30:29.342Z,14.43
2018-05-21T02:32:56.833Z,14.42
2018-05-21T02:35:24.324Z,14.40
2018-05-21T02:37:51.823Z,14.44
2018-05-21T02:40:19.305Z,14.48
2018-05-21T02:42:47.612Z,14.42
2018-05-21T02:45:15.093Z,14.32
2018-05-21T02:47:42.591Z,14.32
2018-05-21T02:50:10.081Z,14.40
2018-05-21T02:52:37.586Z,14.40
2018-05-21T02:55:05.071Z,14.29
2018-05-21T02:57:32.570Z,14.24
2018-05-21T03:00:00.045Z,14.25
2018-05-21T03:02:27.560Z,14.27
2018-05-21T03:04:55.038Z,14.36
2018-05-21T03:07:22.546Z,14.37
2018-05-21T03:09:50.052Z,14.35
2018-05-21T03:12:17.551Z,14.30
2018-05-21T03:14:45.030Z,14.31
2018-05-21T03:17:12.534Z,14.34
2018-05-21T03:19:40.015Z,14.34
2018-05-21T03:22:07.515Z,14.28
2018-05-21T03:24:34.996Z,14.35
2018-05-21T03:27:02.490Z,14.34
2018-05-21T03:29:29.957Z,14.26
2018-05-21T03:31:57.484Z,14.28
2018-05-21T03:34:24.966Z,14.27
2018-05-21T03:36:52.462Z,14.34
2018-05-21T03:39:19.978Z,14.37
2018-05-21T03:41:47.492Z,14.30
2018-05-21T03:44:14.968Z,14.30
2018-05-21T03:46:42.472Z,14.30
2018-05-21T03:49:09.950Z,14.35
2018-05-21T03:51:37.449Z,14.33
2018-05-21T03:54:04.938Z,14.31
2018-05-21T03:56:32.414Z,14.39
2018-05-21T03:59:11.738Z,14.50
2018-05-21T04:01:50.934Z,14.51
2018-05-21T04:04:18.410Z,14.51
2018-05-21T04:06:45.889Z,14.49
2018-05-21T04:09:13.387Z,14.57
2018-05-21T04:11:40.858Z,14.58
2018-05-21T04:14:08.345Z,14.59
2018-05-21T04:16:35.810Z,14.63
2018-05-21T04:19:03.330Z,14.58
2018-05-21T04:21:31.031Z,14.59
2018-05-21T04:23:58.527Z,14.50
2018-05-21T04:26:26.003Z,14.52
2018-05-21T04:28:53.493Z,14.56
2018-05-21T04:31:20.958Z,14.58
2018-05-21T04:33:48.461Z,14.59
2018-05-21T04:36:15.939Z,14.48
2018-05-21T04:38:43.433Z,14.56
2018-05-21T04:41:10.912Z,14.61
2018-05-21T04:43:38.406Z,14.67
2018-05-21T04:46:05.910Z,14.69
2018-05-21T04:48:33.407Z,14.68
2018-05-21T04:51:00.886Z,14.79
2018-05-21T04:53:28.387Z,15.00
2018-05-21T04:55:55.866Z,15.00
2018-05-21T04:58:23.370Z,15.10
2018-05-21T05:00:50.835Z,15.19
2018-05-21T05:03:18.321Z,15.15
2018-05-21T05:05:45.787Z,15.61
2018-05-21T05:08:13.273Z,15.94
2018-05-21T05:10:40.750Z,16.13
2018-05-21T05:13:08.251Z,16.39
2018-05-21T05:15:35.732Z,16.69
2018-05-21T05:18:03.262Z,17.09
2018-05-21T05:20:30.754Z,17.34
2018-05-21T05:22:58.218Z,17.38
2018-05-21T05:25:25.716Z,17.20
2018-05-21T05:27:53.206Z,16.76
2018-05-21T05:30:20.711Z,16.65
2018-05-21T05:32:48.182Z,16.71
2018-05-21T05:35:15.674Z,16.76
2018-05-21T05:37:43.142Z,16.78
2018-05-21T05:40:10.636Z,16.85
2018-05-21T05:42:38.118Z,16.80
2018-05-21T05:45:05.601Z,16.81
2018-05-21T05:47:33.070Z,16.89
2018-05-21T05:50:00.559Z,16.96
2018-05-21T05:52:28.026Z,17.16
2018-05-21T05:54:55.518Z,17.63
2018-05-21T05:57:23.013Z,18.05
2018-05-21T05:59:50.511Z,18.52
2018-05-21T06:02:17.975Z,18.75
2018-05-21T06:04:45.462Z,18.74
2018-05-21T06:07:12.922Z,18.61
2018-05-21T06:09:40.414Z,18.52
2018-05-21T06:12:07.890Z,18.77
2018-05-21T06:14:36.165Z,18.62
2018-05-21T06:17:03.673Z,18.29
2018-05-21T06:19:31.161Z,18.22
2018-05-21T06:21:58.671Z,18.31
2018-05-21T06:24:26.167Z,18.52
2018-05-21T06:26:53.635Z,18.63
2018-05-21T06:29:27.828Z,18.51
2018-05-21T06:31:55.294Z,18.62
2018-05-21T06:34:22.832Z,19.16
2018-05-21T06:36:50.266Z,19.17
2018-05-21T06:39:17.765Z,19.47
2018-05-21T06:41:45.254Z,19.67
2018-05-21T06:44:12.765Z,19.78
2018-05-21T06:46:40.230Z,19.98
2018-05-21T06:49:07.702Z,20.01
2018-05-21T06:51:35.190Z,19.92
2018-05-21T06:54:02.654Z,20.01
2018-05-21T06:56:30.146Z,20.13
2018-05-21T06:58:57.630Z,20.37
2018-05-21T07:01:25.212Z,20.13
2018-05-21T07:03:52.680Z,19.84
2018-05-21T07:06:21.125Z,19.86
2018-05-21T07:08:48.599Z,19.69
2018-05-21T07:11:16.090Z,20.02
2018-05-21T07:13:43.573Z,20.15
2018-05-21T07:16:11.082Z,20.42
2018-05-21T07:18:38.786Z,20.30
2018-05-21T07:21:10.458Z,20.29
2018-05-21T07:23:37.921Z,20.38
2018-05-21T07:26:05.412Z,20.28
2018-05-21T07:28:32.878Z,20.53
2018-05-21T07:31:00.372Z,20.83
2018-05-21T07:33:28.625Z,21.12
2018-05-21T07:35:56.113Z,21.16
2018-05-21T07:38:23.676Z,21.34
2018-05-21T07:40:51.262Z,21.49
2018-05-21T07:43:18.784Z,21.32
2018-05-21T07:45:46.276Z,21.38
2018-05-21T07:48:13.757Z,21.40
2018-05-21T07:50:41.255Z,21.11
2018-05-21T07:53:08.730Z,21.43
2018-05-21T07:55:37.186Z,21.16
2018-05-21T07:58:04.758Z,21.40
2018-05-21T08:00:32.335Z,21.83
2018-05-21T08:02:59.831Z,22.03
2018-05-21T08:05:27.362Z,21.77
2018-05-21T08:07:54.838Z,22.09
2018-05-21T08:10:22.412Z,22.33
2018-05-21T08:12:49.817Z,22.36
2018-05-21T08:15:17.313Z,22.51
2018-05-21T08:17:44.782Z,22.42
2018-05-21T08:20:12.802Z,22.67
2018-05-21T08:22:40.378Z,22.80
2018-05-21T08:25:07.910Z,22.69
2018-05-21T08:27:35.482Z,22.67
2018-05-21T08:30:02.957Z,22.70
2018-05-21T08:32:30.439Z,22.61
2018-05-21T08:34:57.909Z,22.63
2018-05-21T08:37:25.414Z,22.77
2018-05-21T08:39:52.887Z,22.91
2018-05-21T08:42:20.363Z,22.96
2018-05-21T08:44:47.837Z,23.07
2018-05-21T08:47:15.328Z,23.08
2018-05-21T08:49:42.797Z,23.02
2018-05-21T08:52:10.278Z,22.93
2018-05-21T08:54:37.764Z,22.90
2018-05-21T08:57:05.290Z,22.79
2018-05-21T08:59:32.778Z,22.40
2018-05-21T09:02:00.283Z,22.50
2018-05-21T09:04:27.745Z,22.41
2018-05-21T09:06:55.238Z,22.37
2018-05-21T09:09:22.721Z,22.42
2018-05-21T09:11:50.207Z,22.39
2018-05-21T09:14:17.680Z,22.57
2018-05-21T09:16:45.161Z,22.75
2018-05-21T09:19:12.629Z,22.87
2018-05-21T09:21:40.121Z,23.02
2018-05-21T09:24:07.594Z,23.07
2018-05-21T09:26:35.088Z,23.20
2018-05-21T09:29:02.564Z,23.23
2018-05-21T09:31:30.051Z,23.34
2018-05-21T09:33:57.514Z,23.41
2018-05-21T09:36:25.015Z,23.35
2018-05-21T09:38:52.494Z,23.30
2018-05-21T09:41:19.965Z,23.55
2018-05-21T09:43:47.453Z,23.64
2018-05-21T09:46:14.921Z,23.79
2018-05-21T09:48:42.505Z,23.92
2018-05-21T09:51:09.905Z,24.01
2018-05-21T09:53:37.393Z,23.90
2018-05-21T09:56:04.867Z,23.77
2018-05-21T09:58:32.417Z,23.43
2018-05-21T10:00:59.893Z,23.20
2018-05-21T10:03:37.381Z,23.22
2018-05-21T10:06:04.868Z,23.15
2018-05-21T10:08:32.369Z,23.29
2018-05-21T10:10:59.837Z,23.54
2018-05-21T10:13:27.338Z,23.90
2018-05-21T10:15:54.809Z,23.76
2018-05-21T10:18:22.334Z,23.61
2018-05-21T10:20:49.802Z,23.65
2018-05-21T10:23:17.299Z,23.56
2018-05-21T10:25:44.766Z,23.76
2018-05-21T10:28:12.272Z,23.97
2018-05-21T10:30:39.888Z,23.62
2018-05-21T10:33:08.214Z,23.95
2018-05-21T10:35:36.149Z,24.27
2018-05-21T10:38:03.746Z,24.40
2018-05-21T10:40:31.234Z,24.52
2018-05-21T10:42:58.766Z,24.56
2018-05-21T10:45:26.378Z,24.67
2018-05-21T10:47:53.890Z,24.64
2018-05-21T10:50:21.414Z,24.56
2018-05-21T10:52:48.917Z,24.59
2018-05-21T10:55:16.397Z,24.61
2018-05-21T10:57:44.004Z,24.47
2018-05-21T11:00:11.495Z,24.79
2018-05-21T11:02:39.022Z,24.87
2018-05-21T11:05:06.495Z,25.09
2018-05-21T11:07:33.977Z,25.27
2018-05-21T11:10:01.450Z,25.44
2018-05-21T11:12:28.914Z,25.47
2018-05-21T11:14:56.399Z,25.64
2018-05-21T11:17:23.854Z,25.51
2018-05-21T11:19:51.339Z,25.56
2018-05-21T11:22:18.800Z,25.66
2018-05-21T11:24:46.298Z,25.74
2018-05-21T11:27:13.776Z,25.74
2018-05-21T11:29:41.269Z,25.71
2018-05-21T11:32:08.729Z,25.15
2018-05-21T11:34:36.218Z,24.90
2018-05-21T11:37:03.698Z,24.49
2018-05-21T11:39:31.206Z,24.60
2018-05-21T11:41:58.686Z,24.95
2018-05-21T11:44:26.163Z,25.22
2018-05-21T11:46:53.626Z,25.21
2018-05-21T11:49:21.113Z,25.28
2018-05-21T11:51:48.819Z,25.45
2018-05-21T11:54:16.343Z,25.41
2018-05-21T11:56:43.802Z,25.71
2018-05-21T11:59:11.282Z,26.01
2018-05-21T12:01:38.746Z,26.00
2018-05-21T12:04:06.250Z,25.97
2018-05-21T12:06:33.704Z,25.85
2018-05-21T12:09:01.205Z,25.91
2018-05-21T12:11:28.673Z,26.29
2018-05-21T12:13:56.158Z,26.58
2018-05-21T12:16:23.621Z,26.72
2018-05-21T12:18:51.108Z,27.04
2018-05-21T12:21:18.562Z,27.14
2018-05-21T12:23:46.046Z,27.48
2018-05-21T12:26:14.031Z,27.06
2018-05-21T12:28:41.504Z,27.58
2018-05-21T12:31:08.986Z,27.92
2018-05-21T12:33:36.463Z,28.33
2018-05-21T12:36:04.000Z,28.89
2018-05-21T12:38:31.486Z,29.28
2018-05-21T12:40:58.962Z,29.39
2018-05-21T12:43:26.426Z,28.88
2018-05-21T12:45:53.919Z,29.37
2018-05-21T12:48:21.387Z,29.73
2018-05-21T12:50:48.878Z,29.64
2018-05-21T12:53:16.350Z,29.80
2018-05-21T12:55:43.859Z,30.25
2018-05-21T12:58:11.335Z,29.63
2018-05-21T13:00:38.814Z,29.84
2018-05-21T13:03:06.290Z,30.20
2018-05-21T13:05:34.218Z,30.91
2018-05-21T13:08:01.742Z,31.63
2018-05-21T13:10:29.310Z,32.52
2018-05-21T13:12:56.950Z,33.61
2018-05-21T13:15:24.559Z,33.76
2018-05-21T13:17:52.019Z,34.82
2018-05-21T13:20:19.571Z,35.62
2018-05-21T13:22:47.058Z,36.40
2018-05-21T13:25:14.562Z,35.55
2018-05-21T13:27:42.046Z,35.25
2018-05-21T13:30:09.523Z,34.64
2018-05-21T13:32:36.999Z,33.90
2018-05-21T13:35:04.460Z,32.81
2018-05-21T13:37:32.490Z,32.43
2018-05-21T13:40:00.851Z,32.38
2018-05-21T13:42:28.374Z,33.40
2018-05-21T13:44:55.906Z,34.63
2018-05-21T13:47:23.474Z,35.45
2018-05-21T13:49:50.970Z,35.26
2018-05-21T13:52:18.593Z,34.78
2018-05-21T13:54:46.062Z,33.92
2018-05-21T13:57:13.615Z,33.48
2018-05-21T13:59:41.144Z,32.36
2018-05-21T14:02:08.697Z,33.02
2018-05-21T14:04:36.327Z,32.42
2018-05-21T14:07:03.794Z,33.90
2018-05-21T14:09:31.361Z,35.45
2018-05-21T14:11:58.986Z,35.90
2018-05-21T14:14:26.554Z,34.80
2018-05-21T14:16:54.122Z,33.39
2018-05-21T14:19:21.659Z,30.83
2018-05-21T14:21:49.230Z,29.26
2018-05-21T14:24:16.791Z,29.95
2018-05-21T14:26:44.362Z,30.95
2018-05-21T14:29:11.889Z,31.23
2018-05-21T14:31:39.438Z,31.96
2018-05-21T14:34:06.970Z,33.69
2018-05-21T14:36:34.519Z,34.55
2018-05-21T14:39:02.044Z,33.66
2018-05-21T14:41:29.596Z,33.29
2018-05-21T14:43:57.142Z,33.23
2018-05-21T14:46:24.701Z,32.96
2018-05-21T14:48:52.220Z,32.17
2018-05-21T14:51:19.696Z,34.07
2018-05-21T14:53:47.242Z,34.79
2018-05-21T14:56:14.823Z,35.06
2018-05-21T14:58:42.366Z,32.98
2018-05-21T15:01:09.887Z,32.50
2018-05-21T15:03:37.408Z,31.43
2018-05-21T15:06:04.961Z,33.08
2018-05-21T15:08:32.490Z,34.13
2018-05-21T15:11:00.010Z,35.57
2018-05-21T15:13:27.534Z,34.67
2018-05-21T15:15:55.159Z,34.30
2018-05-21T15:18:22.686Z,33.13
2018-05-21T15:20:50.180Z,34.13
2018-05-21T15:23:17.689Z,36.05
2018-05-21T15:25:45.189Z,37.33
2018-05-21T15:28:12.693Z,35.47
2018-05-21T15:30:40.150Z,36.99
2018-05-21T15:33:07.906Z,38.34
2018-05-21T15:35:35.381Z,37.63
2018-05-21T15:38:02.879Z,36.21
2018-05-21T15:40:30.388Z,36.21
2018-05-21T15:42:57.884Z,35.38
2018-05-21T15:45:25.377Z,35.51
2018-05-21T15:47:52.890Z,35.23
2018-05-21T15:50:20.375Z,36.41
2018-05-21T15:52:47.880Z,35.05
2018-05-21T15:55:15.347Z,36.12
2018-05-21T15:57:42.963Z,37.00
2018-05-21T16:00:10.450Z,37.90
2018-05-21T16:02:37.965Z,35.73
2018-05-21T16:05:05.465Z,36.63
2018-05-21T16:07:32.995Z,36.85
2018-05-21T16:10:00.470Z,37.88
2018-05-21T16:12:27.929Z,38.00
2018-05-21T16:14:55.426Z,38.43
2018-05-21T16:17:22.889Z,37.03
2018-05-21T16:19:50.374Z,34.59
2018-05-21T16:22:17.848Z,32.33
2018-05-21T16:24:45.331Z,31.57
2018-05-21T16:27:12.811Z,30.38
2018-05-21T16:29:40.574Z,29.82
2018-05-21T16:32:08.049Z,29.63
2018-05-21T16:34:35.557Z,29.77
2018-05-21T16:37:03.047Z,29.48
2018-05-21T16:39:30.542Z,30.44
2018-05-21T16:41:58.007Z,30.86
2018-05-21T16:44:25.489Z,31.74
2018-05-21T16:46:52.957Z,33.50
2018-05-21T16:49:20.685Z,35.10
2018-05-21T16:51:48.162Z,36.14
2018-05-21T16:54:15.652Z,37.67
2018-05-21T16:56:43.120Z,37.06
2018-05-21T16:59:10.645Z,35.33
2018-05-21T17:01:38.106Z,34.18
2018-05-21T17:04:05.583Z,31.94
2018-05-21T17:06:33.733Z,30.83
2018-05-21T17:09:01.898Z,30.38
2018-05-21T17:11:30.206Z,31.30
2018-05-21T17:13:57.710Z,32.49
2018-05-21T17:16:25.210Z,32.74
2018-05-21T17:18:52.702Z,31.10
2018-05-21T17:21:20.169Z,29.99
2018-05-21T17:23:47.660Z,28.91
2018-05-21T17:26:15.115Z,28.42
2018-05-21T17:28:42.614Z,27.78
2018-05-21T17:31:10.088Z,27.60
2018-05-21T17:33:37.581Z,27.20
2018-05-21T17:36:05.138Z,26.72
2018-05-21T17:38:32.657Z,26.33
2018-05-21T17:41:00.138Z,26.01
2018-05-21T17:43:27.602Z,25.96
2018-05-21T17:45:55.078Z,25.58
2018-05-21T17:48:22.549Z,25.32
2018-05-21T17:50:50.030Z,25.06
2018-05-21T17:53:17.497Z,24.92
2018-05-21T17:55:44.975Z,24.79
2018-05-21T17:58:12.438Z,24.42
2018-05-21T18:00:39.926Z,24.21
2018-05-21T18:03:07.418Z,24.15
2018-05-21T18:05:34.897Z,23.96
2018-05-21T18:08:02.362Z,23.54
2018-05-21T18:10:29.842Z,23.62
2018-05-21T18:12:57.357Z,23.45
2018-05-21T18:15:24.934Z,23.36
2018-05-21T18:17:52.438Z,23.31
2018-05-21T18:20:19.956Z,23.15
2018-05-21T18:22:48.341Z,23.06
2018-05-21T18:25:15.903Z,22.97
2018-05-21T18:27:43.397Z,22.86
2018-05-21T18:30:11.043Z,22.73
2018-05-21T18:32:38.512Z,22.62
2018-05-21T18:35:06.015Z,22.44
2018-05-21T18:37:33.482Z,22.36
2018-05-21T18:40:00.995Z,22.25
2018-05-21T18:42:28.555Z,22.19
2018-05-21T18:44:55.963Z,22.14
2018-05-21T18:47:23.434Z,22.01
2018-05-21T18:49:50.934Z,21.92
2018-05-21T18:52:18.401Z,21.82
2018-05-21T18:54:46.135Z,21.64
2018-05-21T18:57:13.643Z,21.75
2018-05-21T18:59:41.175Z,21.58
2018-05-21T19:02:08.658Z,21.33
2018-05-21T19:04:36.124Z,21.37
2018-05-21T19:07:03.610Z,21.27
2018-05-21T19:09:31.067Z,21.19
2018-05-21T19:11:58.558Z,21.07
2018-05-21T19:14:26.023Z,21.13
2018-05-21T19:16:53.513Z,21.13
2018-05-21T19:19:21.002Z,21.10
2018-05-21T19:21:48.493Z,20.96
2018-05-21T19:24:16.007Z,20.93
2018-05-21T19:26:43.506Z,20.87
2018-05-21T19:29:10.959Z,20.96
2018-05-21T19:31:38.433Z,20.98
2018-05-21T19:34:05.898Z,21.00
2018-05-21T19:36:33.383Z,21.00
2018-05-21T19:39:00.849Z,20.94
2018-05-21T19:41:28.344Z,20.88
2018-05-21T19:43:55.817Z,20.76
2018-05-21T19:46:23.308Z,20.66
2018-05-21T19:48:50.790Z,20.60
2018-05-21T19:51:18.283Z,20.49
2018-05-21T19:53:45.746Z,20.50
2018-05-21T19:56:13.237Z,20.44
2018-05-21T19:58:40.718Z,20.43
2018-05-21T20:01:08.197Z,20.37
2018-05-21T20:03:35.667Z,20.31
2018-05-21T20:06:03.150Z,20.18
2018-05-21T20:08:30.624Z,20.14
2018-05-21T20:10:58.107Z,20.06
2018-05-21T20:13:25.574Z,20.00
2018-05-21T20:15:53.091Z,19.96
2018-05-21T20:18:32.346Z,19.85
2018-05-21T20:20:59.841Z,19.78
2018-05-21T20:23:27.302Z,19.72
2018-05-21T20:25:55.011Z,19.65
2018-05-21T20:28:22.499Z,19.59
2018-05-21T20:30:49.975Z,19.52
2018-05-21T20:33:17.453Z,19.50
2018-05-21T20:35:44.922Z,19.47
2018-05-21T20:38:12.404Z,19.40
2018-05-21T20:40:39.881Z,19.28
2018-05-21T20:43:07.374Z,19.17
2018-05-21T20:45:34.834Z,19.09
2018-05-21T20:48:02.328Z,18.96
2018-05-21T20:50:29.790Z,18.94
2018-05-21T20:52:57.353Z,18.89
2018-05-21T20:55:26.359Z,18.85
2018-05-21T20:57:53.866Z,18.80
2018-05-21T21:00:21.321Z,18.63
2018-05-21T21:02:48.832Z,18.59
2018-05-21T21:05:16.289Z,18.17
2018-05-21T21:07:43.753Z,18.71
2018-05-21T21:10:11.250Z,18.63
2018-05-21T21:12:38.714Z,18.77
2018-05-21T21:15:06.210Z,19.03
2018-05-21T21:17:33.674Z,19.07
2018-05-21T21:20:01.175Z,18.78
2018-05-21T21:22:28.674Z,18.63
2018-05-21T21:24:56.156Z,18.47
2018-05-21T21:27:23.619Z,18.43
2018-05-21T21:29:51.101Z,18.54
2018-05-21T21:32:18.577Z,18.59
2018-05-21T21:34:46.095Z,18.62
2018-05-21T21:37:13.556Z,18.59
2018-05-21T21:39:41.050Z,18.59
2018-05-21T21:42:08.510Z,18.56
2018-05-21T21:44:36.041Z,18.44
2018-05-21T21:47:03.519Z,18.30
2018-05-21T21:49:31.008Z,18.40
2018-05-21T21:51:58.476Z,18.43
2018-05-21T21:54:25.969Z,17.89
2018-05-21T21:56:53.436Z,17.31
2018-05-21T21:59:20.923Z,17.39
2018-05-21T22:01:48.422Z,17.47
2018-05-21T22:04:15.874Z,17.49
2018-05-21T22:06:43.363Z,17.44
2018-05-21T22:09:10.839Z,17.83
2018-05-21T22:11:38.314Z,17.70
2018-05-21T22:14:05.779Z,17.63
2018-05-21T22:16:33.267Z,17.83
2018-05-21T22:19:00.759Z,17.88
2018-05-21T22:21:28.247Z,17.62
2018-05-21T22:23:55.717Z,17.28
2018-05-21T22:26:23.205Z,17.23
2018-05-21T22:28:50.677Z,17.16
2018-05-21T22:31:18.180Z,17.00
2018-05-21T22:33:45.649Z,17.21
2018-05-21T22:36:13.154Z,17.02
2018-05-21T22:38:40.637Z,17.20
2018-05-21T22:41:08.114Z,17.20
2018-05-21T22:43:35.602Z,17.28
2018-05-21T22:46:03.071Z,17.22
2018-05-21T22:48:30.558Z,17.19
2018-05-21T22:50:58.030Z,16.94
2018-05-21T22:53:25.530Z,17.09
2018-05-21T22:55:53.001Z,16.93
2018-05-21T22:58:20.504Z,16.98
2018-05-21T23:00:47.986Z,17.13
2018-05-21T23:03:15.474Z,17.20
2018-05-21T23:05:42.949Z,17.22
2018-05-21T23:08:10.452Z,17.07
2018-05-21T23:10:37.925Z,17.14
2018-05-21T23:13:05.416Z,17.15
2018-05-21T23:15:32.889Z,16.83
2018-05-21T23:18:07.814Z,16.70
2018-05-21T23:20:35.282Z,16.56
2018-05-21T23:23:02.761Z,16.70
2018-05-21T23:25:30.252Z,16.67
2018-05-21T23:27:57.722Z,16.54
2018-05-21T23:30:25.210Z,16.40
2018-05-21T23:32:52.730Z,16.33
2018-05-21T23:35:20.229Z,16.16
2018-05-21T23:37:47.702Z,16.13
2018-05-21T23:40:15.192Z,16.03
2018-05-21T23:42:42.663Z,15.98
2018-05-21T23:45:10.202Z,16.04
2018-05-21T23:47:37.683Z,15.96
2018-05-21T23:50:05.183Z,16.00
2018-05-21T23:52:32.645Z,16.19
2018-05-21T23:55:00.142Z,16.31
2018-05-21T23:57:27.619Z,16.32
2018-05-21T23:59:55.086Z,16.24
